createdAt,value
2022-08-05T00:00:28.724Z,15.29
2022-08-05T00:02:30.420Z,15.29
2022-08-05T00:04:35.466Z,15.27
2022-08-05T00:06:37.221Z,15.26
2022-08-05T00:08:39.479Z,15.24
2022-08-05T00:10:42.046Z,15.20
2022-08-05T00:12:55.652Z,15.18
2022-08-05T00:25:08.405Z,14.84
2022-08-05T00:27:16.802Z,14.78
2022-08-05T00:29:18.909Z,14.70
2022-08-05T00:31:53.084Z,14.61
2022-08-05T00:34:53.414Z,14.55
2022-08-05T00:36:15.878Z,14.49
2022-08-05T00:38:34.068Z,14.45
2022-08-05T00:40:53.390Z,14.42
2022-08-05T00:42:59.124Z,14.39
2022-08-05T00:45:01.897Z,14.37
2022-08-05T00:47:06.174Z,14.37
2022-08-05T00:49:07.927Z,14.36
2022-08-05T00:51:50.935Z,14.37
2022-08-05T00:54:00.001Z,14.39
2022-08-05T00:55:59.371Z,14.40
2022-08-05T00:58:02.339Z,14.42
2022-08-05T01:00:11.233Z,14.43
2022-08-05T01:02:15.131Z,14.43
2022-08-05T01:04:20.289Z,14.43
2022-08-05T01:06:32.614Z,14.41
2022-08-05T01:08:43.286Z,14.39
2022-08-05T01:10:54.462Z,14.38
2022-08-05T01:13:13.404Z,14.38
2022-08-05T01:15:36.363Z,14.37
2022-08-05T01:17:44.122Z,14.33
2022-08-05T01:20:01.682Z,14.30
2022-08-05T01:22:34.152Z,14.27
2022-08-05T01:25:10.332Z,14.23
2022-08-05T01:27:35.373Z,14.20
2022-08-05T01:29:54.963Z,14.15
2022-08-05T01:32:02.733Z,14.12
2022-08-05T01:34:13.465Z,14.07
2022-08-05T01:36:17.370Z,14.03
2022-08-05T01:38:27.253Z,13.98
2022-08-05T01:40:32.205Z,13.92
2022-08-05T01:42:34.873Z,13.87
2022-08-05T01:44:37.988Z,13.80
2022-08-05T01:46:42.850Z,13.73
2022-08-05T01:48:51.043Z,13.66
2022-08-05T01:51:12.352Z,13.61
2022-08-05T01:53:17.347Z,13.59
2022-08-05T01:55:44.386Z,13.58
2022-08-05T01:58:30.011Z,13.57
2022-08-05T02:00:12.519Z,13.57
2022-08-05T02:02:15.935Z,13.56
2022-08-05T02:04:20.302Z,13.54
2022-08-05T02:06:38.185Z,13.53
2022-08-05T02:08:40.979Z,13.51
2022-08-05T02:11:13.789Z,13.47
2022-08-05T02:13:36.479Z,13.44
2022-08-05T02:15:55.646Z,13.42
2022-08-05T02:18:32.941Z,13.40
2022-08-05T02:20:27.335Z,13.38
2022-08-05T02:22:33.452Z,13.36
2022-08-05T02:24:38.378Z,13.35
2022-08-05T02:26:53.838Z,13.32
2022-08-05T02:28:56.406Z,13.28
2022-08-05T02:31:14.501Z,13.24
2022-08-05T02:33:24.532Z,13.21
2022-08-05T02:35:44.883Z,13.18
2022-08-05T02:38:02.402Z,13.16
2022-08-05T02:40:05.467Z,13.14
2022-08-05T02:42:11.583Z,13.12
2022-08-05T02:44:28.929Z,13.10
2022-08-05T02:46:30.930Z,13.08
2022-08-05T02:48:33.049Z,13.07
2022-08-05T02:50:36.420Z,13.04
2022-08-05T02:52:38.575Z,13.04
2022-08-05T02:54:50.787Z,13.04
2022-08-05T02:56:54.224Z,13.04
2022-08-05T02:59:12.289Z,13.06
2022-08-05T03:01:20.262Z,13.07
2022-08-05T03:03:23.587Z,13.07
2022-08-05T03:06:56.561Z,13.06
2022-08-05T03:08:01.284Z,13.05
2022-08-05T03:10:10.661Z,13.03
2022-08-05T03:12:31.646Z,13.03
2022-08-05T03:14:34.696Z,13.03
2022-08-05T03:16:47.592Z,13.04
2022-08-05T03:18:50.336Z,13.05
2022-08-05T03:20:53.769Z,13.06
2022-08-05T03:22:57.957Z,13.06
2022-08-05T03:25:11.560Z,13.02
2022-08-05T03:27:22.575Z,12.99
2022-08-05T03:29:45.867Z,12.95
2022-08-05T03:38:42.628Z,12.69
2022-08-05T03:40:54.472Z,12.64
2022-08-05T03:43:16.046Z,12.60
2022-08-05T03:45:23.405Z,12.57
2022-08-05T03:47:25.790Z,12.57
2022-08-05T03:49:51.649Z,12.57
2022-08-05T03:52:48.289Z,12.56
2022-08-05T03:55:54.145Z,12.54
2022-08-05T03:56:50.119Z,12.48
2022-08-05T03:58:53.938Z,12.44
2022-08-05T04:00:56.123Z,12.42
2022-08-05T04:03:02.924Z,12.38
2022-08-05T04:05:09.534Z,12.40
2022-08-05T04:07:11.817Z,12.43
2022-08-05T04:09:16.005Z,12.47
2022-08-05T04:11:47.251Z,12.49
2022-08-05T04:13:53.429Z,12.50
2022-08-05T04:16:04.411Z,12.50
2022-08-05T04:18:09.847Z,12.49
2022-08-05T04:20:21.340Z,12.49
2022-08-05T04:22:28.210Z,12.47
2022-08-05T04:24:29.985Z,12.44
2022-08-05T04:26:32.468Z,12.42
2022-08-05T04:28:34.582Z,12.42
2022-08-05T04:30:36.731Z,12.41
2022-08-05T04:32:58.902Z,12.40
2022-08-05T04:35:00.976Z,12.40
2022-08-05T04:37:03.368Z,12.41
2022-08-05T04:39:05.258Z,12.40
2022-08-05T04:41:09.513Z,12.41
2022-08-05T04:43:16.524Z,12.40
2022-08-05T04:45:31.062Z,12.40
2022-08-05T04:47:42.831Z,12.41
2022-08-05T04:50:01.999Z,12.41
2022-08-05T04:52:11.749Z,12.41
2022-08-05T04:54:14.924Z,12.38
2022-08-05T04:56:57.475Z,12.36
2022-08-05T04:59:01.417Z,12.32
2022-08-05T05:02:05.599Z,12.29
2022-08-05T05:03:46.250Z,12.26
2022-08-05T05:06:35.979Z,12.24
2022-08-05T05:08:14.477Z,12.22
2022-08-05T05:10:33.994Z,12.21
2022-08-05T05:12:36.816Z,12.19
2022-08-05T05:14:38.729Z,12.16
2022-08-05T05:16:51.243Z,12.13
2022-08-05T05:19:17.638Z,12.08
2022-08-05T05:21:17.971Z,12.05
2022-08-05T05:23:20.243Z,12.05
2022-08-05T05:25:22.159Z,12.05
2022-08-05T05:27:41.323Z,12.05
2022-08-05T05:30:04.272Z,12.02
2022-08-05T05:32:05.899Z,11.99
2022-08-05T05:34:15.490Z,11.97
2022-08-05T05:36:17.884Z,11.95
2022-08-05T05:38:22.568Z,11.95
2022-08-05T05:40:30.231Z,11.97
2022-08-05T05:42:33.908Z,12.00
2022-08-05T05:44:43.214Z,12.02
2022-08-05T05:46:47.898Z,12.06
2022-08-05T05:48:52.809Z,12.06
2022-08-05T05:50:54.698Z,12.05
2022-08-05T05:52:56.425Z,12.06
2022-08-05T05:55:07.474Z,12.08
2022-08-05T05:57:19.182Z,12.10
2022-08-05T05:59:21.275Z,12.13
2022-08-05T06:01:24.478Z,12.16
2022-08-05T06:03:54.202Z,12.20
2022-08-05T06:06:00.621Z,12.23
2022-08-05T06:08:03.935Z,12.25
2022-08-05T06:10:10.197Z,12.28
2022-08-05T06:12:12.348Z,12.30
2022-08-05T06:14:17.423Z,12.34
2022-08-05T06:16:30.901Z,12.40
2022-08-05T06:18:33.973Z,12.45
2022-08-05T06:20:41.119Z,12.50
2022-08-05T06:23:08.267Z,12.55
2022-08-05T06:25:59.028Z,12.62
2022-08-05T06:28:12.821Z,12.68
2022-08-05T06:30:04.308Z,12.73
2022-08-05T06:32:26.386Z,12.80
2022-08-05T06:34:30.789Z,12.88
2022-08-05T06:36:56.937Z,12.98
2022-08-05T06:38:54.924Z,13.05
2022-08-05T06:40:56.712Z,13.09
2022-08-05T06:42:58.443Z,13.11
2022-08-05T06:45:00.252Z,13.16
2022-08-05T06:47:15.812Z,13.18
2022-08-05T06:50:01.717Z,13.20
2022-08-05T06:51:50.730Z,13.23
2022-08-05T06:53:53.464Z,13.26
2022-08-05T06:55:56.926Z,13.30
2022-08-05T06:58:11.748Z,13.36
2022-08-05T07:00:24.679Z,13.44
2022-08-05T07:02:30.201Z,13.48
2022-08-05T07:04:31.961Z,13.50
2022-08-05T07:06:34.732Z,13.53
2022-08-05T07:08:36.409Z,13.57
2022-08-05T07:10:39.051Z,13.62
2022-08-05T07:13:13.262Z,13.68
2022-08-05T07:16:01.602Z,13.71
2022-08-05T07:18:09.034Z,13.75
2022-08-05T07:22:34.001Z,13.84
2022-08-05T07:24:43.815Z,13.88
2022-08-05T07:26:54.114Z,13.96
2022-08-05T07:28:56.643Z,14.02
2022-08-05T07:31:01.762Z,14.08
2022-08-05T07:33:09.575Z,14.18
2022-08-05T07:35:55.743Z,14.29
2022-08-05T07:37:37.462Z,14.41
2022-08-05T07:40:26.866Z,14.54
2022-08-05T07:42:08.645Z,14.67
2022-08-05T07:44:19.458Z,14.73
2022-08-05T07:46:24.855Z,14.81
2022-08-05T07:49:01.548Z,14.90
2022-08-05T07:50:49.259Z,15.01
2022-08-05T07:52:51.052Z,15.07
2022-08-05T07:54:52.732Z,15.10
2022-08-05T07:57:01.197Z,15.19
2022-08-05T07:59:16.382Z,15.22
2022-08-05T08:01:18.451Z,15.28
2022-08-05T08:03:24.654Z,15.35
2022-08-05T08:05:49.695Z,15.44
2022-08-05T08:07:59.603Z,15.53
2022-08-05T08:10:02.130Z,15.62
2022-08-05T08:12:12.522Z,15.70
2022-08-05T08:14:19.245Z,15.78
2022-08-05T08:16:34.928Z,15.85
2022-08-05T08:18:50.146Z,15.97
2022-08-05T08:21:03.180Z,16.06
2022-08-05T08:23:11.609Z,16.17
2022-08-05T08:25:58.991Z,16.28
2022-08-05T08:27:51.424Z,16.32
2022-08-05T08:30:06.088Z,16.38
2022-08-05T08:32:14.931Z,16.41
2022-08-05T08:34:30.229Z,16.50
2022-08-05T08:36:47.553Z,16.62
2022-08-05T08:38:57.517Z,16.65
2022-08-05T08:41:00.418Z,16.68
2022-08-05T08:45:16.448Z,16.71
2022-08-05T08:45:29.521Z,16.75
2022-08-05T08:48:06.089Z,16.90
2022-08-05T08:50:14.492Z,16.90
2022-08-05T08:52:30.666Z,16.89
2022-08-05T08:54:33.561Z,16.97
2022-08-05T08:56:47.879Z,17.08
2022-08-05T08:58:52.358Z,17.18
2022-08-05T09:00:54.576Z,17.26
2022-08-05T09:02:57.365Z,17.30
2022-08-05T09:05:17.883Z,17.40
2022-08-05T09:07:29.150Z,17.64
2022-08-05T09:09:42.981Z,17.83
2022-08-05T09:11:53.180Z,17.89
2022-08-05T09:14:10.012Z,17.88
2022-08-05T09:16:19.796Z,17.92
2022-08-05T09:18:21.703Z,17.97
2022-08-05T09:20:37.284Z,17.97
2022-08-05T09:23:07.889Z,17.97
2022-08-05T09:25:13.886Z,18.04
2022-08-05T09:28:04.126Z,18.15
2022-08-05T09:30:03.323Z,18.15
2022-08-05T09:32:45.947Z,18.20
2022-08-05T09:34:47.575Z,18.32
2022-08-05T09:36:55.960Z,18.47
2022-08-05T09:39:18.376Z,18.63
2022-08-05T09:41:24.137Z,18.67
2022-08-05T09:43:40.710Z,18.62
2022-08-05T09:46:06.176Z,18.48
2022-08-05T09:48:28.443Z,18.53
2022-08-05T09:50:43.848Z,18.63
2022-08-05T09:52:48.182Z,18.72
2022-08-05T09:55:55.530Z,18.82
2022-08-05T09:57:39.568Z,18.84
2022-08-05T09:59:48.182Z,18.95
2022-08-05T10:01:58.288Z,18.99
2022-08-05T10:04:03.657Z,18.95
2022-08-05T10:06:14.746Z,18.82
2022-08-05T10:08:36.363Z,18.75
2022-08-05T10:10:45.642Z,18.73
2022-08-05T10:12:55.651Z,18.80
2022-08-05T10:15:17.078Z,18.98
2022-08-05T10:17:39.944Z,19.26
2022-08-05T10:20:04.504Z,19.76
2022-08-05T10:22:02.869Z,20.27
2022-08-05T10:24:10.942Z,20.61
2022-08-05T10:26:13.843Z,20.90
2022-08-05T10:28:19.159Z,21.11
2022-08-05T10:31:20.344Z,21.58
2022-08-05T10:33:01.746Z,22.03
2022-08-05T10:35:04.920Z,22.23
2022-08-05T10:37:06.957Z,22.50
2022-08-05T10:39:25.270Z,22.66
2022-08-05T10:42:11.375Z,22.64
2022-08-05T10:44:17.270Z,22.40
2022-08-05T10:46:23.921Z,22.31
2022-08-05T10:48:38.466Z,22.39
2022-08-05T10:51:21.900Z,22.62
2022-08-05T10:53:42.621Z,23.06
2022-08-05T10:56:25.579Z,23.35
2022-08-05T10:58:47.882Z,23.72
2022-08-05T11:00:55.202Z,23.89
2022-08-05T11:03:24.625Z,23.97
2022-08-05T11:05:31.553Z,23.76
2022-08-05T11:08:01.247Z,23.49
2022-08-05T11:10:03.684Z,23.45
2022-08-05T11:12:45.453Z,23.56
2022-08-05T11:15:20.240Z,23.28
2022-08-05T11:17:59.782Z,22.67
2022-08-05T11:20:16.939Z,22.59
2022-08-05T11:22:42.364Z,22.77
2022-08-05T11:25:01.628Z,23.22
2022-08-05T11:27:50.755Z,23.88
2022-08-05T11:29:59.754Z,24.50
2022-08-05T11:32:38.500Z,24.56
2022-08-05T11:34:51.143Z,24.30
2022-08-05T11:36:54.351Z,24.22
2022-08-05T11:38:57.757Z,24.64
2022-08-05T11:41:34.636Z,25.18
2022-08-05T11:44:02.809Z,25.87
2022-08-05T11:46:27.302Z,26.29
2022-08-05T11:48:11.613Z,26.53
2022-08-05T11:50:14.322Z,26.58
2022-08-05T11:52:24.365Z,26.78
2022-08-05T11:54:38.304Z,26.89
2022-08-05T11:56:50.309Z,26.84
2022-08-05T11:58:53.323Z,26.99
2022-08-05T12:01:08.475Z,26.86
2022-08-05T12:03:31.718Z,26.88
2022-08-05T12:05:39.562Z,27.19
2022-08-05T12:08:08.385Z,27.61
2022-08-05T12:10:09.461Z,27.84
2022-08-05T12:12:13.410Z,27.60
2022-08-05T12:14:15.193Z,27.35
2022-08-05T12:16:19.417Z,26.98
2022-08-05T12:18:38.654Z,26.59
2022-08-05T12:20:41.433Z,26.57
2022-08-05T12:22:43.371Z,26.79
2022-08-05T12:24:50.515Z,27.20
2022-08-05T12:26:53.699Z,27.68
2022-08-05T12:28:55.351Z,28.11
2022-08-05T12:30:58.029Z,28.11
2022-08-05T12:33:06.940Z,27.57
2022-08-05T12:35:09.466Z,26.73
2022-08-05T12:37:17.638Z,25.86
2022-08-05T12:39:28.155Z,25.16
2022-08-05T12:41:43.639Z,24.88
2022-08-05T12:44:06.944Z,24.78
2022-08-05T12:46:24.878Z,25.12
2022-08-05T12:48:39.941Z,25.58
2022-08-05T12:50:41.759Z,26.00
2022-08-05T12:52:56.797Z,26.47
2022-08-05T12:54:59.666Z,26.93
2022-08-05T12:57:09.727Z,27.57
2022-08-05T12:59:23.831Z,28.21
2022-08-05T13:02:02.217Z,28.71
2022-08-05T13:04:07.470Z,28.73
2022-08-05T13:06:16.475Z,28.25
2022-08-05T13:08:18.647Z,27.56
2022-08-05T13:10:20.643Z,27.00
2022-08-05T13:12:23.828Z,26.93
2022-08-05T13:14:36.835Z,27.47
2022-08-05T13:16:56.423Z,28.05
2022-08-05T13:18:59.125Z,28.40
2022-08-05T13:21:00.885Z,28.62
2022-08-05T13:23:02.604Z,28.69
2022-08-05T13:25:19.283Z,28.93
2022-08-05T13:27:40.125Z,29.24
2022-08-05T13:30:32.664Z,29.59
2022-08-05T13:32:05.509Z,29.78
2022-08-05T13:34:21.143Z,29.86
2022-08-05T13:36:27.075Z,30.07
2022-08-05T13:38:34.199Z,30.14
2022-08-05T13:40:51.407Z,30.48
2022-08-05T13:42:55.694Z,30.65
2022-08-05T13:44:57.854Z,30.36
2022-08-05T13:47:04.632Z,30.19
2022-08-05T13:49:11.840Z,30.30
2022-08-05T13:51:14.030Z,30.51
2022-08-05T13:53:16.242Z,30.56
2022-08-05T13:55:41.635Z,30.48
2022-08-05T13:57:51.413Z,30.07
2022-08-05T13:59:57.398Z,30.08
2022-08-05T14:02:02.557Z,30.01
2022-08-05T14:04:26.769Z,29.91
2022-08-05T14:06:28.560Z,30.37
2022-08-05T14:08:32.632Z,30.66
2022-08-05T14:10:35.514Z,30.69
2022-08-05T14:12:39.702Z,30.83
2022-08-05T14:14:44.782Z,30.78
2022-08-05T14:16:46.839Z,30.61
2022-08-05T14:18:51.975Z,30.67
2022-08-05T14:20:54.782Z,30.50
2022-08-05T14:22:58.686Z,30.37
2022-08-05T14:25:01.039Z,30.39
2022-08-05T14:27:17.822Z,30.33
2022-08-05T14:29:20.105Z,29.31
2022-08-05T14:32:03.972Z,28.50
2022-08-05T14:33:59.408Z,28.29
2022-08-05T14:36:02.286Z,28.31
2022-08-05T14:38:04.132Z,28.43
2022-08-05T14:40:07.132Z,28.49
2022-08-05T14:42:29.304Z,28.09
2022-08-05T14:44:30.929Z,27.51
2022-08-05T14:46:34.986Z,27.68
2022-08-05T14:48:37.076Z,28.17
2022-08-05T14:50:40.858Z,28.57
2022-08-05T14:52:52.400Z,28.21
2022-08-05T14:54:55.418Z,27.37
2022-08-05T14:56:58.593Z,26.80
2022-08-05T14:59:00.407Z,26.48
2022-08-05T15:01:02.444Z,26.32
2022-08-05T15:03:09.589Z,26.47
2022-08-05T15:05:13.298Z,26.40
2022-08-05T15:08:06.363Z,26.23
2022-08-05T15:09:52.588Z,26.02
2022-08-05T15:11:57.761Z,26.46
2022-08-05T15:13:59.504Z,27.12
2022-08-05T15:16:02.231Z,27.84
2022-08-05T15:18:05.721Z,28.36
2022-08-05T15:20:18.492Z,28.68
2022-08-05T15:22:20.872Z,28.49
2022-08-05T15:24:23.243Z,28.02
2022-08-05T15:26:32.032Z,27.92
2022-08-05T15:28:34.451Z,28.21
2022-08-05T15:30:37.062Z,28.67
2022-08-05T15:32:40.040Z,29.14
2022-08-05T15:34:42.331Z,29.39
2022-08-05T15:37:22.270Z,29.16
2022-08-05T15:41:01.274Z,29.53
2022-08-05T15:42:50.008Z,30.10
2022-08-05T15:44:30.231Z,30.66
2022-08-05T15:46:32.634Z,31.04
2022-08-05T15:48:34.799Z,31.33
2022-08-05T15:50:36.985Z,31.45
2022-08-05T15:52:53.738Z,31.61
2022-08-05T15:54:58.154Z,31.81
2022-08-05T15:57:01.268Z,31.44
2022-08-05T15:59:05.608Z,30.42
2022-08-05T16:01:17.188Z,29.64
2022-08-05T16:03:20.825Z,28.93
2022-08-05T16:05:22.905Z,28.40
2022-08-05T16:07:31.063Z,28.20
2022-08-05T16:09:36.097Z,28.57
2022-08-05T16:11:42.623Z,29.16
2022-08-05T16:13:45.678Z,29.74
2022-08-05T16:15:47.650Z,30.21
2022-08-05T16:17:57.995Z,30.54
2022-08-05T16:20:05.349Z,30.75
2022-08-05T16:22:13.303Z,31.14
2022-08-05T16:24:40.259Z,31.58
2022-08-05T16:26:53.900Z,31.66
2022-08-05T16:28:56.217Z,31.43
2022-08-05T16:30:58.679Z,31.25
2022-08-05T16:33:02.713Z,31.20
2022-08-05T16:35:05.578Z,31.22
2022-08-05T16:38:02.533Z,31.07
2022-08-05T16:40:07.104Z,30.94
2022-08-05T16:42:15.302Z,30.03
2022-08-05T16:44:14.871Z,28.92
2022-08-05T16:46:24.503Z,28.11
2022-08-05T16:48:33.170Z,27.40
2022-08-05T16:50:36.863Z,26.68
2022-08-05T16:52:38.598Z,26.19
2022-08-05T16:54:47.726Z,25.78
2022-08-05T16:56:52.007Z,25.88
2022-08-05T16:58:54.116Z,26.41
2022-08-05T17:00:55.894Z,27.00
2022-08-05T17:02:57.774Z,27.43
2022-08-05T17:04:59.571Z,27.87
2022-08-05T17:07:03.464Z,28.11
2022-08-05T17:09:14.017Z,28.27
2022-08-05T17:11:17.396Z,28.09
2022-08-05T17:13:21.271Z,27.71
2022-08-05T17:15:48.753Z,27.09
2022-08-05T17:17:55.473Z,26.63
2022-08-05T17:20:01.257Z,26.37
2022-08-05T17:22:03.907Z,26.51
2022-08-05T17:24:18.498Z,26.50
2022-08-05T17:26:28.434Z,26.77
2022-08-05T17:28:32.910Z,27.29
2022-08-05T17:30:34.593Z,27.87
2022-08-05T17:32:52.950Z,28.46
2022-08-05T17:34:54.695Z,28.82
2022-08-05T17:37:00.651Z,29.26
2022-08-05T17:39:02.703Z,29.67
2022-08-05T17:41:22.652Z,29.97
2022-08-05T17:43:46.891Z,30.24
2022-08-05T17:45:46.393Z,30.56
2022-08-05T17:47:55.870Z,30.62
2022-08-05T17:50:03.892Z,30.72
2022-08-05T17:52:06.459Z,30.48
2022-08-05T17:54:08.227Z,30.18
2022-08-05T17:56:11.844Z,29.79
2022-08-05T17:58:14.619Z,29.22
2022-08-05T18:00:18.601Z,28.71
2022-08-05T18:02:20.425Z,28.27
2022-08-05T18:04:27.894Z,27.92
2022-08-05T18:06:31.882Z,27.51
2022-08-05T18:08:34.188Z,27.06
2022-08-05T18:10:35.867Z,26.55
2022-08-05T18:12:41.407Z,26.07
2022-08-05T18:14:43.110Z,25.62
2022-08-05T18:16:52.150Z,25.17
2022-08-05T18:18:54.303Z,24.84
2022-08-05T18:20:56.166Z,24.62
2022-08-05T18:23:09.581Z,24.36
2022-08-05T18:25:14.090Z,24.01
2022-08-05T18:27:19.212Z,23.70
2022-08-05T18:29:40.293Z,23.39
2022-08-05T18:31:43.223Z,23.09
2022-08-05T18:33:47.072Z,22.88
2022-08-05T18:36:01.333Z,22.71
2022-08-05T18:38:07.494Z,22.61
2022-08-05T18:40:34.157Z,22.41
2022-08-05T18:42:32.603Z,22.22
2022-08-05T18:44:35.547Z,22.00
2022-08-05T18:46:50.791Z,21.75
2022-08-05T18:48:53.755Z,21.51
2022-08-05T18:52:03.887Z,21.35
2022-08-05T18:53:42.995Z,21.24
2022-08-05T18:55:47.879Z,21.13
2022-08-05T18:57:53.110Z,21.03
2022-08-05T19:00:03.061Z,20.89
2022-08-05T19:02:18.456Z,20.69
2022-08-05T19:04:30.561Z,20.61
2022-08-05T19:06:44.641Z,20.51
2022-08-05T19:08:47.362Z,20.41
2022-08-05T19:10:50.419Z,20.33
2022-08-05T19:12:52.131Z,20.22
2022-08-05T19:15:00.741Z,20.14
2022-08-05T19:17:07.681Z,20.06
2022-08-05T19:19:09.618Z,19.95
2022-08-05T19:21:11.378Z,19.91
2022-08-05T19:24:03.689Z,19.85
2022-08-05T19:25:41.930Z,19.74
2022-08-05T19:27:45.525Z,19.64
2022-08-05T19:29:51.959Z,19.57
2022-08-05T19:31:55.493Z,19.50
2022-08-05T19:33:59.126Z,19.44
2022-08-05T19:36:02.217Z,19.39
2022-08-05T19:38:06.017Z,19.34
2022-08-05T19:40:10.374Z,19.26
2022-08-05T19:42:13.475Z,19.19
2022-08-05T19:44:18.808Z,19.13
2022-08-05T19:46:29.384Z,19.07
2022-08-05T19:48:32.290Z,18.99
2022-08-05T19:50:36.747Z,18.92
2022-08-05T19:52:40.012Z,18.87
2022-08-05T19:54:42.050Z,18.78
2022-08-05T19:56:43.660Z,18.68
2022-08-05T19:58:53.309Z,18.63
2022-08-05T20:00:59.183Z,18.58
2022-08-05T20:03:00.975Z,18.54
2022-08-05T20:05:16.437Z,18.49
2022-08-05T20:07:45.832Z,18.44
2022-08-05T20:09:53.835Z,18.36
2022-08-05T20:11:56.952Z,18.28
2022-08-05T20:14:14.292Z,18.21
2022-08-05T20:16:19.687Z,18.14
2022-08-05T20:18:33.733Z,18.08
2022-08-05T20:20:37.745Z,18.03
2022-08-05T20:22:41.457Z,17.97
2022-08-05T20:24:45.903Z,17.89
2022-08-05T20:26:48.201Z,17.81
2022-08-05T20:28:55.821Z,17.76
2022-08-05T20:30:57.856Z,17.72
2022-08-05T20:36:22.546Z,17.58
2022-08-05T20:38:27.390Z,17.55
2022-08-05T20:40:32.828Z,17.50
2022-08-05T20:42:34.649Z,17.47
2022-08-05T20:44:38.042Z,17.44
2022-08-05T20:46:39.988Z,17.42
2022-08-05T20:48:44.719Z,17.35
2022-08-05T20:50:54.495Z,17.30
2022-08-05T20:52:56.147Z,17.26
2022-08-05T20:55:54.399Z,17.19
2022-08-05T20:57:24.875Z,17.06
2022-08-05T21:00:11.074Z,16.94
2022-08-05T21:02:04.060Z,16.86
2022-08-05T21:04:10.355Z,16.83
2022-08-05T21:06:27.728Z,16.80
2022-08-05T21:08:41.967Z,16.75
2022-08-05T21:10:48.703Z,16.70
2022-08-05T21:12:58.049Z,16.65
2022-08-05T21:15:11.166Z,16.61
2022-08-05T21:17:13.098Z,16.56
2022-08-05T21:19:14.770Z,16.52
2022-08-05T21:21:16.802Z,16.47
2022-08-05T21:23:18.466Z,16.42
2022-08-05T21:25:20.819Z,16.36
2022-08-05T21:27:25.531Z,16.30
2022-08-05T21:29:31.401Z,16.28
2022-08-05T21:31:41.227Z,16.25
2022-08-05T21:33:43.678Z,16.22
2022-08-05T21:35:58.815Z,16.17
2022-08-05T21:38:02.275Z,16.13
2022-08-05T21:40:07.199Z,16.08
2022-08-05T21:42:41.358Z,16.02
2022-08-05T21:44:38.250Z,15.94
2022-08-05T21:46:40.215Z,15.89
2022-08-05T21:48:45.682Z,15.83
2022-08-05T21:50:54.095Z,15.76
2022-08-05T21:53:04.298Z,15.68
2022-08-05T21:55:08.110Z,15.59
2022-08-05T21:57:30.953Z,15.54
2022-08-05T21:59:54.154Z,15.49
2022-08-05T22:01:54.580Z,15.44
2022-08-05T22:03:57.542Z,15.40
2022-08-05T22:05:59.349Z,15.35
2022-08-05T22:08:02.520Z,15.30
2022-08-05T22:10:05.743Z,15.27
2022-08-05T22:12:10.459Z,15.25
2022-08-05T22:14:35.743Z,15.23
2022-08-05T22:16:41.623Z,15.16
2022-08-05T22:18:52.805Z,15.09
2022-08-05T22:20:55.831Z,15.01
2022-08-05T22:23:21.383Z,14.94
2022-08-05T22:26:10.657Z,14.90
2022-08-05T22:28:11.079Z,14.84
2022-08-05T22:30:15.588Z,14.79
2022-08-05T22:32:19.034Z,14.76
2022-08-05T22:34:28.436Z,14.74
2022-08-05T22:36:30.633Z,14.72
2022-08-05T22:38:32.402Z,14.69
2022-08-05T22:40:36.305Z,14.69
2022-08-05T22:42:45.715Z,14.67
2022-08-05T22:44:57.010Z,14.66
2022-08-05T22:46:59.133Z,14.62
2022-08-05T22:49:00.887Z,14.60
2022-08-05T22:51:06.996Z,14.58
2022-08-05T22:53:10.896Z,14.55
2022-08-05T22:55:18.623Z,14.54
2022-08-05T22:57:21.427Z,14.50
2022-08-05T22:59:43.985Z,14.45
2022-08-05T23:02:04.455Z,14.40
2022-08-05T23:04:06.658Z,14.36
2022-08-05T23:06:08.421Z,14.32
2022-08-05T23:08:12.483Z,14.29
2022-08-05T23:10:20.258Z,14.24
2022-08-05T23:12:24.485Z,14.21
2022-08-05T23:14:32.356Z,14.19
2022-08-05T23:16:53.247Z,14.16
2022-08-05T23:18:54.930Z,14.12
2022-08-05T23:20:57.451Z,14.08
2022-08-05T23:23:03.502Z,14.05
2022-08-05T23:25:11.415Z,14.01
2022-08-05T23:27:13.695Z,13.97
2022-08-05T23:29:17.149Z,13.96
2022-08-05T23:31:21.175Z,13.94
2022-08-05T23:34:03.035Z,13.92
2022-08-05T23:35:46.030Z,13.89
2022-08-05T23:37:47.751Z,13.88
2022-08-05T23:39:54.139Z,13.86
2022-08-05T23:41:56.652Z,13.85
2022-08-05T23:44:04.626Z,13.82
2022-08-05T23:46:21.321Z,13.80
2022-08-05T23:48:24.015Z,13.75
2022-08-05T23:50:29.174Z,13.73
2022-08-05T23:52:35.945Z,13.73
2022-08-05T23:54:51.406Z,13.72
2022-08-05T23:56:54.616Z,13.70
2022-08-05T23:58:58.504Z,13.67
